createdAt,value
2022-09-25T00:02:09.895Z,38.00
2022-09-25T00:04:37.412Z,37.97
2022-09-25T00:07:04.583Z,38.06
2022-09-25T00:09:31.756Z,38.23
2022-09-25T00:11:59.199Z,38.48
2022-09-25T00:14:26.342Z,38.92
2022-09-25T00:16:53.556Z,38.90
2022-09-25T00:19:40.037Z,38.87
2022-09-25T00:22:07.212Z,38.85
2022-09-25T00:24:34.628Z,38.66
2022-09-25T00:27:01.760Z,38.46
2022-09-25T00:29:30.535Z,38.46
2022-09-25T00:31:58.017Z,38.44
2022-09-25T00:34:25.168Z,38.69
2022-09-25T00:36:52.311Z,38.61
2022-09-25T00:39:19.733Z,38.67
2022-09-25T00:41:46.937Z,38.61
2022-09-25T00:44:32.731Z,38.48
2022-09-25T00:47:00.396Z,38.71
2022-09-25T00:49:27.523Z,38.54
2022-09-25T00:52:02.498Z,38.57
2022-09-25T00:54:31.543Z,38.63
2022-09-25T00:56:59.083Z,38.44
2022-09-25T00:59:30.155Z,38.35
2022-09-25T01:01:57.604Z,38.38
2022-09-25T01:04:24.736Z,38.48
2022-09-25T01:06:52.307Z,38.40
2022-09-25T01:09:19.955Z,38.48
2022-09-25T01:11:47.167Z,38.64
2022-09-25T01:14:17.465Z,38.53
2022-09-25T01:16:53.010Z,38.52
2022-09-25T01:19:23.883Z,38.36
2022-09-25T01:22:03.662Z,38.64
2022-09-25T01:24:44.783Z,39.28
2022-09-25T01:27:19.119Z,39.01
2022-09-25T01:29:52.665Z,39.11
2022-09-25T01:32:26.406Z,38.86
2022-09-25T01:34:53.567Z,38.81
2022-09-25T01:37:23.212Z,38.69
2022-09-25T01:40:07.856Z,38.78
2022-09-25T01:42:37.618Z,38.77
2022-09-25T01:45:05.786Z,38.87
2022-09-25T01:47:37.814Z,39.03
2022-09-25T01:50:10.301Z,39.28
2022-09-25T01:52:38.660Z,39.20
2022-09-25T01:55:10.765Z,39.16
2022-09-25T01:57:42.496Z,39.29
2022-09-25T02:00:10.203Z,39.29
2022-09-25T02:02:43.248Z,38.91
2022-09-25T02:05:12.618Z,38.65
2022-09-25T02:07:41.866Z,38.58
2022-09-25T02:10:09.865Z,38.84
2022-09-25T02:12:40.956Z,38.74
2022-09-25T02:15:09.462Z,38.79
2022-09-25T02:17:58.820Z,38.86
2022-09-25T02:20:31.985Z,38.77
2022-09-25T02:23:10.825Z,38.90
2022-09-25T02:25:42.132Z,39.04
2022-09-25T02:28:10.046Z,39.02
2022-09-25T02:30:37.241Z,39.15
2022-09-25T02:33:04.415Z,39.24
2022-09-25T02:35:32.197Z,39.26
2022-09-25T02:37:59.460Z,38.92
2022-09-25T02:40:34.023Z,38.99
2022-09-25T02:43:16.381Z,39.24
2022-09-25T02:45:52.797Z,39.63
2022-09-25T02:48:26.209Z,39.30
2022-09-25T02:51:12.789Z,39.36
2022-09-25T02:53:43.754Z,39.38
2022-09-25T02:56:10.953Z,39.33
2022-09-25T02:58:49.420Z,39.21
2022-09-25T03:01:17.550Z,39.55
2022-09-25T03:03:44.972Z,39.85
2022-09-25T03:06:12.111Z,39.83
2022-09-25T03:08:42.355Z,39.73
2022-09-25T03:11:10.922Z,39.79
2022-09-25T03:13:38.329Z,39.67
2022-09-25T03:16:10.951Z,39.79
2022-09-25T03:18:38.172Z,40.11
2022-09-25T03:21:05.595Z,40.08
2022-09-25T03:23:32.728Z,39.90
2022-09-25T03:25:59.860Z,39.87
2022-09-25T03:28:27.369Z,40.02
2022-09-25T03:30:58.573Z,39.83
2022-09-25T03:33:25.972Z,39.50
2022-09-25T03:36:10.984Z,40.09
2022-09-25T03:38:38.561Z,40.42
2022-09-25T03:41:08.788Z,40.48
2022-09-25T03:43:37.401Z,40.33
2022-09-25T03:46:05.151Z,40.45
2022-09-25T03:48:33.076Z,40.20
2022-09-25T03:51:01.227Z,40.16
2022-09-25T03:53:32.266Z,40.15
2022-09-25T03:56:04.591Z,40.65
2022-09-25T03:58:32.955Z,40.37
2022-09-25T04:01:01.655Z,40.34
2022-09-25T04:03:30.018Z,40.53
2022-09-25T04:05:58.462Z,40.71
2022-09-25T04:08:27.012Z,40.37
2022-09-25T04:10:56.333Z,40.15
2022-09-25T04:13:23.808Z,40.34
2022-09-25T04:15:51.724Z,40.09
2022-09-25T04:18:19.255Z,40.13
2022-09-25T04:20:46.432Z,40.21
2022-09-25T04:23:13.571Z,40.27
2022-09-25T04:25:40.990Z,40.18
2022-09-25T04:28:10.146Z,40.22
2022-09-25T04:30:37.293Z,40.20
2022-09-25T04:33:23.333Z,40.21
2022-09-25T04:35:51.068Z,40.42
2022-09-25T04:38:18.910Z,40.23
2022-09-25T04:40:46.184Z,40.23
2022-09-25T04:43:13.488Z,40.26
2022-09-25T04:45:40.920Z,40.36
2022-09-25T04:48:08.059Z,40.12
2022-09-25T04:50:35.267Z,40.35
2022-09-25T04:53:03.030Z,40.26
2022-09-25T04:55:30.276Z,40.44
2022-09-25T04:57:59.269Z,40.34
2022-09-25T05:00:28.186Z,40.32
2022-09-25T05:02:55.552Z,40.22
2022-09-25T05:05:22.837Z,39.96
2022-09-25T05:07:54.291Z,39.99
2022-09-25T05:10:22.206Z,39.93
2022-09-25T05:12:54.283Z,39.96
2022-09-25T05:15:21.641Z,40.07
2022-09-25T05:17:49.004Z,40.19
2022-09-25T05:20:17.212Z,40.34
2022-09-25T05:22:44.360Z,40.13
2022-09-25T05:25:11.853Z,40.37
2022-09-25T05:27:39.297Z,40.23
2022-09-25T05:30:08.882Z,40.18
2022-09-25T05:32:36.314Z,40.75
2022-09-25T05:35:04.294Z,40.56
2022-09-25T05:37:31.427Z,40.83
2022-09-25T05:39:58.642Z,41.40
2022-09-25T05:42:26.107Z,41.44
2022-09-25T05:44:53.226Z,40.83
2022-09-25T05:47:20.363Z,40.39
2022-09-25T05:49:47.781Z,40.29
2022-09-25T05:52:14.920Z,40.46
2022-09-25T05:54:42.079Z,40.29
2022-09-25T05:57:09.498Z,40.16
2022-09-25T05:59:36.700Z,40.31
2022-09-25T06:02:03.923Z,40.30
2022-09-25T06:04:31.353Z,40.26
2022-09-25T06:07:01.929Z,40.34
2022-09-25T06:09:29.077Z,40.19
2022-09-25T06:11:57.234Z,40.89
2022-09-25T06:14:24.631Z,40.44
2022-09-25T06:16:51.747Z,40.26
2022-09-25T06:19:19.157Z,40.40
2022-09-25T06:21:47.743Z,40.17
2022-09-25T06:24:14.877Z,40.31
2022-09-25T06:26:42.284Z,40.06
2022-09-25T06:29:09.432Z,40.47
2022-09-25T06:31:37.871Z,40.70
2022-09-25T06:34:06.039Z,40.70
2022-09-25T06:36:33.266Z,40.53
2022-09-25T06:39:00.412Z,40.26
2022-09-25T06:41:27.962Z,40.32
2022-09-25T06:43:55.186Z,42.31
2022-09-25T06:46:22.433Z,41.38
2022-09-25T06:48:54.270Z,41.26
2022-09-25T06:51:24.752Z,42.24
2022-09-25T06:53:53.292Z,42.88
2022-09-25T06:56:20.739Z,41.81
2022-09-25T06:58:47.875Z,41.44
2022-09-25T07:01:15.332Z,42.67
2022-09-25T07:03:45.367Z,42.16
2022-09-25T07:06:16.688Z,41.34
2022-09-25T07:08:44.406Z,40.38
2022-09-25T07:11:12.295Z,39.70
2022-09-25T07:13:41.903Z,40.19
2022-09-25T07:16:14.459Z,39.10
2022-09-25T07:18:41.956Z,39.50
2022-09-25T07:21:13.234Z,40.85
2022-09-25T07:23:42.095Z,40.70
2022-09-25T07:26:11.056Z,39.96
2022-09-25T07:28:39.271Z,39.24
2022-09-25T07:31:19.803Z,39.79
2022-09-25T07:33:47.559Z,38.75
2022-09-25T07:36:15.504Z,38.57
2022-09-25T07:38:42.725Z,38.57
2022-09-25T07:41:10.720Z,38.84
2022-09-25T07:43:38.718Z,39.52
2022-09-25T07:46:06.418Z,40.70
2022-09-25T07:48:33.874Z,39.78
2022-09-25T07:51:01.568Z,39.49
2022-09-25T07:53:28.772Z,39.75
2022-09-25T07:56:06.046Z,40.26
2022-09-25T07:58:39.228Z,40.10
2022-09-25T08:01:08.365Z,40.08
2022-09-25T08:03:35.806Z,40.44
2022-09-25T08:06:04.172Z,41.17
2022-09-25T08:08:31.389Z,40.22
2022-09-25T08:11:02.891Z,41.46
2022-09-25T08:13:32.718Z,39.91
2022-09-25T08:16:03.865Z,40.08
2022-09-25T08:18:31.271Z,39.83
2022-09-25T08:21:04.888Z,40.61
2022-09-25T08:23:32.371Z,39.98
2022-09-25T08:25:59.687Z,40.80
2022-09-25T08:28:26.846Z,40.22
2022-09-25T08:30:54.438Z,40.30
2022-09-25T08:33:21.659Z,39.92
2022-09-25T08:35:57.852Z,39.22
2022-09-25T08:38:26.413Z,39.44
2022-09-25T08:40:55.151Z,38.87
2022-09-25T08:43:22.939Z,39.08
2022-09-25T08:46:08.833Z,38.69
2022-09-25T08:48:56.335Z,38.21
2022-09-25T08:51:23.877Z,39.54
2022-09-25T08:53:51.019Z,39.06
2022-09-25T08:56:18.186Z,38.72
2022-09-25T08:58:53.156Z,39.03
2022-09-25T09:01:21.892Z,38.69
2022-09-25T09:03:54.037Z,38.74
2022-09-25T09:06:21.562Z,38.09
2022-09-25T09:09:00.383Z,39.05
2022-09-25T09:11:30.970Z,38.54
2022-09-25T09:14:10.879Z,38.44
2022-09-25T09:16:42.627Z,38.83
2022-09-25T09:19:09.915Z,37.86
2022-09-25T09:21:37.653Z,38.74
2022-09-25T09:24:04.746Z,39.43
2022-09-25T09:26:38.171Z,39.14
2022-09-25T09:29:05.618Z,40.10
2022-09-25T09:31:37.618Z,39.27
2022-09-25T09:34:14.630Z,37.89
2022-09-25T09:36:54.441Z,39.00
2022-09-25T09:39:21.727Z,38.32
2022-09-25T09:41:54.583Z,38.16
2022-09-25T09:44:30.737Z,38.58
2022-09-25T09:47:05.186Z,38.99
2022-09-25T09:49:43.537Z,39.77
2022-09-25T09:52:12.483Z,40.78
2022-09-25T09:54:47.916Z,39.94
2022-09-25T09:57:18.931Z,39.95
2022-09-25T09:59:47.314Z,41.66
2022-09-25T10:02:25.598Z,40.77
2022-09-25T10:04:53.120Z,41.12
2022-09-25T10:07:22.446Z,41.51
2022-09-25T10:09:49.834Z,41.58
2022-09-25T10:12:29.021Z,42.55
2022-09-25T10:14:56.902Z,43.70
2022-09-25T10:17:24.359Z,43.67
2022-09-25T10:19:55.645Z,43.69
2022-09-25T10:22:26.704Z,43.30
2022-09-25T10:24:55.590Z,44.65
2022-09-25T10:27:26.617Z,42.90
2022-09-25T10:30:04.776Z,42.73
2022-09-25T10:32:35.915Z,43.17
2022-09-25T10:35:03.509Z,43.72
2022-09-25T10:37:34.871Z,43.09
2022-09-25T10:40:02.968Z,42.72
2022-09-25T10:42:48.803Z,43.46
2022-09-25T10:45:35.339Z,43.17
2022-09-25T10:48:26.930Z,43.23
2022-09-25T10:51:06.096Z,41.90
2022-09-25T10:53:34.447Z,42.91
2022-09-25T10:56:05.609Z,42.69
2022-09-25T10:58:36.035Z,43.42
2022-09-25T11:01:04.030Z,42.52
2022-09-25T11:03:32.354Z,41.79
2022-09-25T11:06:01.541Z,42.02
2022-09-25T11:08:30.401Z,43.22
2022-09-25T11:10:58.227Z,43.05
2022-09-25T11:13:29.137Z,42.47
2022-09-25T11:15:57.953Z,41.78
2022-09-25T11:18:51.646Z,42.28
2022-09-25T11:21:20.870Z,40.92
2022-09-25T11:23:47.991Z,42.63
2022-09-25T11:26:16.663Z,42.10
2022-09-25T11:28:44.496Z,42.22
2022-09-25T11:31:30.418Z,41.27
2022-09-25T11:33:57.801Z,43.51
2022-09-25T11:36:24.984Z,43.72
2022-09-25T11:39:14.350Z,43.54
2022-09-25T11:41:46.099Z,44.16
2022-09-25T11:44:22.578Z,43.41
2022-09-25T11:46:52.829Z,43.68
2022-09-25T11:49:24.531Z,43.48
2022-09-25T11:51:51.868Z,43.67
2022-09-25T11:54:33.850Z,43.13
2022-09-25T11:57:07.913Z,44.68
2022-09-25T11:59:55.599Z,44.84
2022-09-25T12:02:30.897Z,44.47
2022-09-25T12:05:07.508Z,43.80
2022-09-25T12:07:35.903Z,46.47
2022-09-25T12:10:09.133Z,46.14
2022-09-25T12:12:57.690Z,45.27
2022-09-25T12:15:43.518Z,44.72
2022-09-25T12:18:17.496Z,43.97
2022-09-25T12:21:03.362Z,47.35
2022-09-25T12:23:34.559Z,45.92
2022-09-25T12:26:17.263Z,46.05
2022-09-25T12:29:04.523Z,46.54
2022-09-25T12:31:35.373Z,46.26
2022-09-25T12:34:23.764Z,47.11
2022-09-25T12:36:52.845Z,46.32
2022-09-25T12:39:24.880Z,47.04
2022-09-25T12:41:56.407Z,47.07
2022-09-25T12:44:27.265Z,46.32
2022-09-25T12:47:02.899Z,46.28
2022-09-25T12:49:34.654Z,46.74
2022-09-25T12:52:03.487Z,46.57
2022-09-25T12:54:48.901Z,45.41
2022-09-25T12:57:24.130Z,45.57
2022-09-25T12:59:57.336Z,48.59
2022-09-25T13:02:27.579Z,46.12
2022-09-25T13:05:02.346Z,45.77
2022-09-25T13:07:36.265Z,46.59
2022-09-25T13:10:06.832Z,45.93
2022-09-25T13:12:35.578Z,45.73
2022-09-25T13:15:08.859Z,45.65
2022-09-25T13:17:36.864Z,45.55
2022-09-25T13:20:22.841Z,45.54
2022-09-25T13:22:50.290Z,45.48
2022-09-25T13:25:18.579Z,44.91
2022-09-25T13:27:46.095Z,44.82
2022-09-25T13:30:25.240Z,46.83
2022-09-25T13:32:53.161Z,46.67
2022-09-25T13:35:21.321Z,47.33
2022-09-25T13:37:48.860Z,46.72
2022-09-25T13:40:38.423Z,46.50
2022-09-25T13:43:23.277Z,46.83
2022-09-25T13:46:09.200Z,46.61
2022-09-25T13:48:37.613Z,46.71
2022-09-25T13:51:18.018Z,46.46
2022-09-25T13:53:52.314Z,49.11
2022-09-25T13:56:23.495Z,47.89
2022-09-25T13:59:03.180Z,47.78
2022-09-25T14:01:33.364Z,47.00
2022-09-25T14:04:01.223Z,46.64
2022-09-25T14:06:36.816Z,49.42
2022-09-25T14:09:08.257Z,47.50
2022-09-25T14:11:37.771Z,47.09
2022-09-25T14:14:06.325Z,47.22
2022-09-25T14:16:34.800Z,47.24
2022-09-25T14:19:02.335Z,47.87
2022-09-25T14:21:30.007Z,47.58
2022-09-25T14:23:58.030Z,47.46
2022-09-25T14:26:26.461Z,47.08
2022-09-25T14:28:54.522Z,48.39
2022-09-25T14:31:40.048Z,46.93
2022-09-25T14:34:14.700Z,46.76
2022-09-25T14:36:45.148Z,46.21
2022-09-25T14:39:25.785Z,46.18
2022-09-25T14:42:17.187Z,45.95
2022-09-25T14:44:57.667Z,46.20
2022-09-25T14:47:26.403Z,45.83
2022-09-25T14:49:53.555Z,45.80
2022-09-25T14:52:24.092Z,45.66
2022-09-25T14:54:52.168Z,45.62
2022-09-25T14:57:25.223Z,45.86
2022-09-25T14:59:56.883Z,45.10
2022-09-25T15:02:26.118Z,45.36
2022-09-25T15:04:57.092Z,44.79
2022-09-25T15:07:24.867Z,45.25
2022-09-25T15:09:55.384Z,45.25
2022-09-25T15:12:34.040Z,44.84
2022-09-25T15:15:08.333Z,44.88
2022-09-25T15:17:38.359Z,45.09
2022-09-25T15:20:07.861Z,44.99
2022-09-25T15:22:36.125Z,44.83
2022-09-25T15:25:04.193Z,44.91
2022-09-25T15:27:31.359Z,44.57
2022-09-25T15:30:00.137Z,44.16
2022-09-25T15:32:39.702Z,44.32
2022-09-25T15:35:08.664Z,44.07
2022-09-25T15:37:36.140Z,44.23
2022-09-25T15:40:11.833Z,46.26
2022-09-25T15:42:41.280Z,46.33
2022-09-25T15:45:09.250Z,46.72
2022-09-25T15:47:36.639Z,46.24
2022-09-25T15:50:06.042Z,47.23
2022-09-25T15:52:34.057Z,47.17
2022-09-25T15:55:02.386Z,46.97
2022-09-25T15:57:30.475Z,47.04
2022-09-25T16:00:16.479Z,45.85
2022-09-25T16:03:08.991Z,46.46
2022-09-25T16:05:36.163Z,48.81
2022-09-25T16:08:17.664Z,47.15
2022-09-25T16:10:49.160Z,48.44
2022-09-25T16:13:21.622Z,49.32
2022-09-25T16:15:52.679Z,48.93
2022-09-25T16:18:32.139Z,50.48
2022-09-25T16:21:22.837Z,49.24
2022-09-25T16:23:56.264Z,47.95
2022-09-25T16:26:24.142Z,49.77
2022-09-25T16:28:57.712Z,47.83
2022-09-25T16:31:25.073Z,47.61
2022-09-25T16:33:54.486Z,46.58
2022-09-25T16:36:21.600Z,46.69
2022-09-25T16:39:10.943Z,49.69
2022-09-25T16:41:39.322Z,48.08
2022-09-25T16:44:14.236Z,47.85
2022-09-25T16:46:42.614Z,47.66
2022-09-25T16:49:12.088Z,47.62
2022-09-25T16:51:48.405Z,47.82
2022-09-25T16:54:16.779Z,49.31
2022-09-25T16:56:44.389Z,47.48
2022-09-25T16:59:15.267Z,48.23
2022-09-25T17:01:43.014Z,47.98
2022-09-25T17:04:11.040Z,51.51
2022-09-25T17:06:40.815Z,52.21
2022-09-25T17:09:12.188Z,49.40
2022-09-25T17:11:39.852Z,48.07
2022-09-25T17:14:07.054Z,47.86
2022-09-25T17:16:34.790Z,47.41
2022-09-25T17:19:01.984Z,47.18
2022-09-25T17:21:29.127Z,46.71
2022-09-25T17:23:56.547Z,46.47
2022-09-25T17:26:24.159Z,46.90
2022-09-25T17:28:51.673Z,47.74
2022-09-25T17:31:22.682Z,47.02
2022-09-25T17:33:50.237Z,46.65
2022-09-25T17:36:17.415Z,46.64
2022-09-25T17:38:44.797Z,49.53
2022-09-25T17:41:17.976Z,48.38
2022-09-25T17:43:45.574Z,48.56
2022-09-25T17:46:16.260Z,48.20
2022-09-25T17:48:43.490Z,48.13
2022-09-25T17:51:13.130Z,47.72
2022-09-25T17:53:40.316Z,49.10
2022-09-25T17:56:10.080Z,48.35
2022-09-25T17:58:37.648Z,50.10
2022-09-25T18:01:09.579Z,50.53
2022-09-25T18:03:37.042Z,53.89
2022-09-25T18:06:04.807Z,54.49
2022-09-25T18:08:31.999Z,51.88
2022-09-25T18:11:01.783Z,54.26
2022-09-25T18:13:29.026Z,51.93
2022-09-25T18:15:57.120Z,50.31
2022-09-25T18:18:24.811Z,50.55
2022-09-25T18:21:10.476Z,49.37
2022-09-25T18:23:38.808Z,49.47
2022-09-25T18:26:07.564Z,50.38
2022-09-25T18:28:34.811Z,49.97
2022-09-25T18:31:02.346Z,52.12
2022-09-25T18:33:29.561Z,51.00
2022-09-25T18:35:56.882Z,53.00
2022-09-25T18:38:24.318Z,53.58
2022-09-25T18:40:51.855Z,53.51
2022-09-25T18:43:19.451Z,53.09
2022-09-25T18:45:51.291Z,53.05
2022-09-25T18:48:18.465Z,53.98
2022-09-25T18:50:49.042Z,55.37
2022-09-25T18:53:16.878Z,55.65
2022-09-25T18:55:44.058Z,56.39
2022-09-25T18:58:11.538Z,55.88
2022-09-25T19:00:40.066Z,53.93
2022-09-25T19:03:07.461Z,52.98
2022-09-25T19:05:34.995Z,51.82
2022-09-25T19:08:04.999Z,50.97
2022-09-25T19:10:34.601Z,50.67
2022-09-25T19:13:01.933Z,50.59
2022-09-25T19:15:29.667Z,50.59
2022-09-25T19:17:59.979Z,50.72
2022-09-25T19:20:27.637Z,52.73
2022-09-25T19:22:56.109Z,50.50
2022-09-25T19:25:23.346Z,49.62
2022-09-25T19:27:50.507Z,49.33
2022-09-25T19:30:18.312Z,50.00
2022-09-25T19:32:45.666Z,50.46
2022-09-25T19:35:13.260Z,50.71
2022-09-25T19:37:42.057Z,49.55
2022-09-25T19:40:27.841Z,49.97
2022-09-25T19:42:55.549Z,51.15
2022-09-25T19:45:24.963Z,50.12
2022-09-25T19:47:52.100Z,48.65
2022-09-25T19:50:19.635Z,47.48
2022-09-25T19:52:50.923Z,48.09
2022-09-25T19:55:18.305Z,48.16
2022-09-25T19:57:46.097Z,51.46
2022-09-25T20:00:15.699Z,52.62
2022-09-25T20:02:46.745Z,51.54
2022-09-25T20:05:14.034Z,50.02
2022-09-25T20:07:41.198Z,51.15
2022-09-25T20:10:08.911Z,53.07
2022-09-25T20:12:36.100Z,50.32
2022-09-25T20:15:03.255Z,49.43
2022-09-25T20:17:30.672Z,49.23
2022-09-25T20:19:57.797Z,49.31
2022-09-25T20:22:25.463Z,48.54
2022-09-25T20:24:52.871Z,48.10
2022-09-25T20:27:23.273Z,50.65
2022-09-25T20:29:50.761Z,48.63
2022-09-25T20:32:18.668Z,51.42
2022-09-25T20:34:45.814Z,48.98
2022-09-25T20:37:12.930Z,52.86
2022-09-25T20:39:40.467Z,51.06
2022-09-25T20:42:07.598Z,49.10
2022-09-25T20:44:34.739Z,48.89
2022-09-25T20:47:02.131Z,50.41
2022-09-25T20:49:30.223Z,49.67
2022-09-25T20:51:57.375Z,49.80
2022-09-25T20:54:42.933Z,52.03
2022-09-25T20:57:10.626Z,50.08
2022-09-25T20:59:37.815Z,50.06
2022-09-25T21:02:05.214Z,48.56
2022-09-25T21:04:32.722Z,48.49
2022-09-25T21:07:00.206Z,48.65
2022-09-25T21:09:27.755Z,47.77
2022-09-25T21:11:55.347Z,48.01
2022-09-25T21:14:23.937Z,50.21
2022-09-25T21:16:51.508Z,50.43
2022-09-25T21:19:19.929Z,49.11
2022-09-25T21:21:47.210Z,48.72
2022-09-25T21:24:15.079Z,51.23
2022-09-25T21:26:42.584Z,48.37
2022-09-25T21:29:10.259Z,48.05
2022-09-25T21:31:38.627Z,48.00
2022-09-25T21:34:06.946Z,48.02
2022-09-25T21:36:34.745Z,49.82
2022-09-25T21:39:01.976Z,51.38
2022-09-25T21:41:29.828Z,50.70
2022-09-25T21:43:57.908Z,55.29
2022-09-25T21:46:25.479Z,52.74
2022-09-25T21:48:53.830Z,53.88
2022-09-25T21:51:21.663Z,52.00
2022-09-25T21:53:48.911Z,51.92
2022-09-25T21:56:17.352Z,50.21
2022-09-25T21:58:45.118Z,49.06
2022-09-25T22:01:13.604Z,49.65
2022-09-25T22:03:41.633Z,49.26
2022-09-25T22:06:10.852Z,49.29
2022-09-25T22:08:38.709Z,50.68
2022-09-25T22:11:06.429Z,51.88
2022-09-25T22:13:34.635Z,51.18
2022-09-25T22:16:02.335Z,52.60
2022-09-25T22:18:29.851Z,52.47
2022-09-25T22:20:56.996Z,50.45
2022-09-25T22:23:24.646Z,51.10
2022-09-25T22:25:52.342Z,50.24
2022-09-25T22:28:20.089Z,54.28
2022-09-25T22:30:47.732Z,51.93
2022-09-25T22:33:15.187Z,55.30
2022-09-25T22:35:42.324Z,56.38
2022-09-25T22:38:09.473Z,53.12
2022-09-25T22:40:37.819Z,56.04
2022-09-25T22:43:05.383Z,53.20
2022-09-25T22:45:32.817Z,51.53
2022-09-25T22:48:00.521Z,53.82
2022-09-25T22:50:27.663Z,51.35
2022-09-25T22:52:58.326Z,50.00
2022-09-25T22:55:26.251Z,50.22
2022-09-25T22:57:53.501Z,49.93
2022-09-25T23:00:20.700Z,49.37
2022-09-25T23:02:48.151Z,49.62
2022-09-25T23:05:15.387Z,50.90
2022-09-25T23:07:42.599Z,49.09
2022-09-25T23:10:10.008Z,48.16
2022-09-25T23:12:37.166Z,48.36
2022-09-25T23:15:04.496Z,48.20
2022-09-25T23:17:31.922Z,50.30
2022-09-25T23:19:59.175Z,49.77
2022-09-25T23:22:26.447Z,51.40
2022-09-25T23:24:53.847Z,51.40
2022-09-25T23:27:20.988Z,54.66
2022-09-25T23:29:48.129Z,53.14
2022-09-25T23:32:15.577Z,50.79
2022-09-25T23:34:42.755Z,50.35
2022-09-25T23:37:09.876Z,52.15
2022-09-25T23:39:37.658Z,52.57
2022-09-25T23:42:04.843Z,53.53
2022-09-25T23:44:32.335Z,52.49
2022-09-25T23:46:59.757Z,51.58
2022-09-25T23:49:26.871Z,50.24
2022-09-25T23:51:54.422Z,50.29
2022-09-25T23:54:21.858Z,51.13
2022-09-25T23:56:48.993Z,50.57
2022-09-25T23:59:16.296Z,50.33
